createdAt,value
2018-07-02T00:00:35.675Z,38.12
2018-07-02T00:01:35.640Z,38.30
2018-07-02T00:02:35.628Z,38.22
2018-07-02T00:03:35.621Z,38.10
2018-07-02T00:04:35.606Z,38.02
2018-07-02T00:05:35.618Z,37.72
2018-07-02T00:06:35.585Z,37.92
2018-07-02T00:07:35.573Z,38.12
2018-07-02T00:08:35.564Z,37.62
2018-07-02T00:09:35.551Z,38.22
2018-07-02T00:10:35.568Z,37.82
2018-07-02T00:11:35.529Z,37.62
2018-07-02T00:12:35.523Z,38.12
2018-07-02T00:13:35.507Z,38.20
2018-07-02T00:14:35.497Z,37.92
2018-07-02T00:15:35.508Z,37.92
2018-07-02T00:16:35.474Z,37.81
2018-07-02T00:17:35.468Z,38.32
2018-07-02T00:18:35.452Z,38.22
2018-07-02T00:19:35.440Z,38.22
2018-07-02T00:20:35.459Z,38.22
2018-07-02T00:21:35.419Z,38.42
2018-07-02T00:22:35.410Z,37.62
2018-07-02T00:23:35.396Z,38.22
2018-07-02T00:24:35.384Z,38.52
2018-07-02T00:25:35.404Z,38.22
2018-07-02T00:26:35.363Z,38.02
2018-07-02T00:27:35.353Z,37.82
2018-07-02T00:28:35.341Z,38.22
2018-07-02T00:29:35.330Z,37.92
2018-07-02T00:30:35.345Z,37.82
2018-07-02T00:31:35.307Z,37.72
2018-07-02T00:32:35.296Z,37.72
2018-07-02T00:33:35.285Z,37.92
2018-07-02T00:34:35.277Z,38.12
2018-07-02T00:35:35.288Z,38.22
2018-07-02T00:36:35.253Z,38.62
2018-07-02T00:37:35.241Z,38.02
2018-07-02T00:38:35.230Z,38.12
2018-07-02T00:39:35.221Z,38.22
2018-07-02T00:40:35.232Z,38.12
2018-07-02T00:41:35.199Z,37.92
2018-07-02T00:42:35.228Z,38.42
2018-07-02T00:43:35.177Z,37.62
2018-07-02T00:44:35.163Z,38.22
2018-07-02T00:45:35.155Z,38.22
2018-07-02T00:46:35.168Z,38.42
2018-07-02T00:47:35.131Z,38.42
2018-07-02T00:48:35.133Z,38.52
2018-07-02T00:49:35.111Z,38.22
2018-07-02T00:50:35.099Z,37.82
2018-07-02T00:51:35.111Z,37.82
2018-07-02T00:52:35.076Z,38.22
2018-07-02T00:53:35.065Z,38.42
2018-07-02T00:54:35.056Z,38.52
2018-07-02T00:55:35.045Z,38.42
2018-07-02T00:56:35.056Z,39.21
2018-07-02T00:57:35.025Z,39.11
2018-07-02T00:58:35.010Z,39.23
2018-07-02T00:59:34.999Z,38.34
2018-07-02T01:00:34.988Z,39.13
2018-07-02T01:01:35.001Z,38.52
2018-07-02T01:02:34.965Z,37.94
2018-07-02T01:03:34.954Z,38.92
2018-07-02T01:04:34.943Z,38.34
2018-07-02T01:05:34.938Z,38.93
2018-07-02T01:06:34.947Z,38.64
2018-07-02T01:07:34.911Z,39.33
2018-07-02T01:08:34.898Z,39.13
2018-07-02T01:09:34.887Z,38.54
2018-07-02T01:10:34.877Z,38.93
2018-07-02T01:11:34.890Z,39.03
2018-07-02T01:12:34.855Z,39.33
2018-07-02T01:13:34.844Z,39.33
2018-07-02T01:14:34.881Z,39.13
2018-07-02T01:15:34.822Z,39.13
2018-07-02T01:16:34.834Z,39.13
2018-07-02T01:17:34.800Z,38.62
2018-07-02T01:18:34.789Z,38.83
2018-07-02T01:19:34.777Z,38.73
2018-07-02T01:20:34.772Z,38.73
2018-07-02T01:21:34.780Z,38.83
2018-07-02T01:22:34.747Z,38.83
2018-07-02T01:23:34.733Z,38.73
2018-07-02T01:24:34.723Z,38.93
2018-07-02T01:25:34.711Z,38.93
2018-07-02T01:26:34.724Z,38.73
2018-07-02T01:27:34.690Z,38.73
2018-07-02T01:28:34.678Z,38.73
2018-07-02T01:29:34.666Z,38.83
2018-07-02T01:30:34.656Z,38.83
2018-07-02T01:31:34.667Z,38.93
2018-07-02T01:32:34.634Z,39.03
2018-07-02T01:33:34.623Z,38.83
2018-07-02T01:34:34.611Z,38.73
2018-07-02T01:35:34.601Z,38.83
2018-07-02T01:36:34.615Z,38.64
2018-07-02T01:37:34.578Z,39.13
2018-07-02T01:38:34.567Z,39.33
2018-07-02T01:39:35.422Z,38.73
2018-07-02T01:40:34.546Z,38.93
2018-07-02T01:41:34.559Z,39.03
2018-07-02T01:42:34.529Z,38.83
2018-07-02T01:43:34.512Z,38.93
2018-07-02T01:44:34.501Z,39.15
2018-07-02T01:45:34.491Z,38.93
2018-07-02T01:46:34.505Z,39.13
2018-07-02T01:47:34.468Z,38.75
2018-07-02T01:48:34.456Z,39.23
2018-07-02T01:49:34.455Z,39.15
2018-07-02T01:50:34.435Z,39.03
2018-07-02T01:51:34.449Z,39.23
2018-07-02T01:52:34.412Z,39.03
2018-07-02T01:53:34.400Z,39.03
2018-07-02T01:54:34.390Z,39.15
2018-07-02T01:55:34.383Z,39.13
2018-07-02T01:56:34.397Z,38.64
2018-07-02T01:57:34.357Z,39.15
2018-07-02T01:58:34.346Z,39.05
2018-07-02T01:59:34.335Z,38.73
2018-07-02T02:00:34.326Z,38.85
2018-07-02T02:01:34.339Z,38.64
2018-07-02T02:02:34.303Z,38.64
2018-07-02T02:03:34.290Z,38.73
2018-07-02T02:04:34.280Z,38.65
2018-07-02T02:05:34.269Z,39.25
2018-07-02T02:06:34.282Z,39.15
2018-07-02T02:07:34.247Z,39.15
2018-07-02T02:08:34.236Z,38.65
2018-07-02T02:09:34.225Z,38.85
2018-07-02T02:10:34.212Z,38.65
2018-07-02T02:11:34.226Z,38.75
2018-07-02T02:12:34.190Z,38.65
2018-07-02T02:13:34.180Z,39.25
2018-07-02T02:14:34.169Z,38.65
2018-07-02T02:15:34.160Z,38.56
2018-07-02T02:16:34.172Z,38.65
2018-07-02T02:17:34.141Z,38.65
2018-07-02T02:18:34.127Z,39.54
2018-07-02T02:19:34.113Z,38.65
2018-07-02T02:20:34.103Z,38.65
2018-07-02T02:21:34.118Z,39.25
2018-07-02T02:22:34.082Z,38.65
2018-07-02T02:23:34.070Z,38.56
2018-07-02T02:24:34.064Z,38.75
2018-07-02T02:25:34.049Z,39.35
2018-07-02T02:26:34.040Z,39.45
2018-07-02T02:27:34.052Z,39.25
2018-07-02T02:28:34.015Z,39.54
2018-07-02T02:29:34.005Z,39.54
2018-07-02T02:30:33.995Z,38.56
2018-07-02T02:31:33.984Z,38.65
2018-07-02T02:32:33.997Z,38.65
2018-07-02T02:33:33.960Z,39.25
2018-07-02T02:34:33.956Z,39.45
2018-07-02T02:35:33.939Z,39.54
2018-07-02T02:36:33.930Z,38.56
2018-07-02T02:37:33.941Z,38.75
2018-07-02T02:38:33.905Z,39.45
2018-07-02T02:39:33.896Z,39.54
2018-07-02T02:40:33.888Z,39.45
2018-07-02T02:41:33.874Z,39.25
2018-07-02T02:42:33.885Z,39.25
2018-07-02T02:43:33.850Z,38.56
2018-07-02T02:44:33.839Z,39.54
2018-07-02T02:45:33.829Z,39.54
2018-07-02T02:46:33.821Z,39.54
2018-07-02T02:47:33.830Z,39.54
2018-07-02T02:48:33.794Z,39.35
2018-07-02T02:49:33.783Z,39.45
2018-07-02T02:50:33.771Z,39.54
2018-07-02T02:51:33.760Z,39.45
2018-07-02T02:52:33.776Z,39.54
2018-07-02T02:53:33.741Z,39.45
2018-07-02T02:54:33.730Z,39.27
2018-07-02T02:55:33.716Z,39.45
2018-07-02T02:56:33.705Z,39.65
2018-07-02T02:57:33.719Z,39.65
2018-07-02T02:58:33.687Z,38.77
2018-07-02T02:59:33.673Z,39.54
2018-07-02T03:00:33.664Z,39.54
2018-07-02T03:01:33.651Z,39.65
2018-07-02T03:02:33.665Z,39.67
2018-07-02T03:03:33.630Z,39.76
2018-07-02T03:04:33.619Z,40.14
2018-07-02T03:05:33.609Z,39.45
2018-07-02T03:06:33.595Z,39.47
2018-07-02T03:07:33.609Z,39.76
2018-07-02T03:08:33.573Z,39.65
2018-07-02T03:09:33.566Z,39.76
2018-07-02T03:10:33.551Z,39.47
2018-07-02T03:11:33.542Z,39.86
2018-07-02T03:12:33.556Z,39.76
2018-07-02T03:13:33.519Z,39.67
2018-07-02T03:14:33.507Z,39.75
2018-07-02T03:15:33.500Z,39.57
2018-07-02T03:16:33.486Z,39.75
2018-07-02T03:17:33.499Z,39.47
2018-07-02T03:18:33.464Z,39.35
2018-07-02T03:19:33.454Z,39.37
2018-07-02T03:20:33.442Z,39.95
2018-07-02T03:21:33.434Z,39.57
2018-07-02T03:22:33.445Z,39.07
2018-07-02T03:23:33.409Z,39.57
2018-07-02T03:24:33.400Z,39.47
2018-07-02T03:25:33.390Z,39.97
2018-07-02T03:26:33.377Z,39.25
2018-07-02T03:27:33.390Z,39.47
2018-07-02T03:28:33.356Z,39.97
2018-07-02T03:29:33.343Z,39.47
2018-07-02T03:30:33.354Z,39.76
2018-07-02T03:31:33.326Z,39.47
2018-07-02T03:32:33.333Z,39.57
2018-07-02T03:33:33.299Z,39.57
2018-07-02T03:34:33.287Z,39.86
2018-07-02T03:35:33.278Z,39.45
2018-07-02T03:36:33.267Z,39.86
2018-07-02T03:37:33.283Z,39.37
2018-07-02T03:38:33.245Z,39.47
2018-07-02T03:39:33.235Z,39.86
2018-07-02T03:40:33.223Z,39.37
2018-07-02T03:41:33.211Z,39.57
2018-07-02T03:42:33.225Z,39.97
2018-07-02T03:43:33.189Z,39.84
2018-07-02T03:44:33.177Z,39.86
2018-07-02T03:45:33.166Z,39.37
2018-07-02T03:46:33.157Z,39.97
2018-07-02T03:47:33.169Z,39.97
2018-07-02T03:48:33.136Z,39.47
2018-07-02T03:49:33.123Z,39.07
2018-07-02T03:50:33.113Z,39.97
2018-07-02T03:51:33.102Z,39.45
2018-07-02T03:52:33.115Z,39.76
2018-07-02T03:53:33.080Z,39.47
2018-07-02T03:54:33.068Z,39.97
2018-07-02T03:55:33.061Z,39.86
2018-07-02T03:56:33.046Z,39.76
2018-07-02T03:57:33.064Z,39.37
2018-07-02T03:58:33.025Z,39.37
2018-07-02T03:59:33.016Z,39.47
2018-07-02T04:00:33.001Z,39.47
2018-07-02T04:01:32.994Z,39.65
2018-07-02T04:02:33.008Z,39.67
2018-07-02T04:03:32.969Z,39.75
2018-07-02T04:04:32.960Z,39.47
2018-07-02T04:05:32.950Z,39.75
2018-07-02T04:06:32.937Z,39.67
2018-07-02T04:07:32.952Z,39.47
2018-07-02T04:08:32.915Z,39.45
2018-07-02T04:09:32.903Z,39.17
2018-07-02T04:10:32.892Z,39.47
2018-07-02T04:11:32.881Z,39.86
2018-07-02T04:12:32.872Z,39.67
2018-07-02T04:13:32.885Z,39.76
2018-07-02T04:14:32.851Z,39.47
2018-07-02T04:15:32.840Z,39.47
2018-07-02T04:16:32.828Z,39.97
2018-07-02T04:17:32.817Z,39.97
2018-07-02T04:18:32.830Z,39.57
2018-07-02T04:19:32.792Z,39.76
2018-07-02T04:20:32.782Z,39.47
2018-07-02T04:21:32.773Z,39.57
2018-07-02T04:22:32.765Z,39.67
2018-07-02T04:23:32.774Z,39.76
2018-07-02T04:24:32.740Z,39.86
2018-07-02T04:25:32.727Z,39.57
2018-07-02T04:26:32.717Z,39.67
2018-07-02T04:27:32.708Z,39.76
2018-07-02T04:28:32.720Z,39.76
2018-07-02T04:29:32.685Z,39.76
2018-07-02T04:30:32.674Z,39.57
2018-07-02T04:31:32.663Z,39.47
2018-07-02T04:32:32.651Z,39.37
2018-07-02T04:33:32.665Z,39.86
2018-07-02T04:34:32.635Z,39.47
2018-07-02T04:35:32.620Z,39.76
2018-07-02T04:36:32.608Z,39.76
2018-07-02T04:37:32.597Z,39.67
2018-07-02T04:38:32.613Z,39.37
2018-07-02T04:39:32.575Z,39.57
2018-07-02T04:40:32.564Z,39.67
2018-07-02T04:41:32.559Z,39.67
2018-07-02T04:42:32.542Z,39.67
2018-07-02T04:43:32.554Z,39.57
2018-07-02T04:44:32.520Z,39.57
2018-07-02T04:45:32.509Z,39.47
2018-07-02T04:46:32.497Z,39.47
2018-07-02T04:47:32.498Z,39.57
2018-07-02T04:48:32.500Z,39.47
2018-07-02T04:49:32.466Z,39.47
2018-07-02T04:50:32.454Z,39.37
2018-07-02T04:51:32.444Z,39.57
2018-07-02T04:52:32.431Z,39.57
2018-07-02T04:53:32.445Z,39.57
2018-07-02T04:54:32.409Z,39.47
2018-07-02T04:55:32.400Z,39.47
2018-07-02T04:56:32.387Z,39.57
2018-07-02T04:57:32.376Z,39.47
2018-07-02T04:58:32.390Z,39.57
2018-07-02T04:59:32.355Z,39.57
2018-07-02T05:00:32.345Z,39.47
2018-07-02T05:01:32.333Z,39.57
2018-07-02T05:02:32.323Z,39.57
2018-07-02T05:03:32.336Z,39.47
2018-07-02T05:04:32.302Z,39.57
2018-07-02T05:05:32.289Z,39.47
2018-07-02T05:06:32.278Z,39.57
2018-07-02T05:07:32.283Z,39.47
2018-07-02T05:08:32.280Z,39.57
2018-07-02T05:09:32.246Z,39.57
2018-07-02T05:10:32.234Z,39.47
2018-07-02T05:11:32.224Z,39.37
2018-07-02T05:12:32.219Z,39.47
2018-07-02T05:13:32.226Z,39.57
2018-07-02T05:14:32.191Z,39.47
2018-07-02T05:15:32.179Z,39.57
2018-07-02T05:16:32.176Z,39.57
2018-07-02T05:17:32.158Z,39.47
2018-07-02T05:18:32.172Z,39.57
2018-07-02T05:19:32.136Z,39.57
2018-07-02T05:20:32.124Z,39.07
2018-07-02T05:21:32.120Z,39.57
2018-07-02T05:22:32.103Z,39.57
2018-07-02T05:23:32.117Z,39.57
2018-07-02T05:24:32.080Z,39.67
2018-07-02T05:25:32.070Z,39.57
2018-07-02T05:26:32.058Z,39.57
2018-07-02T05:27:32.049Z,39.57
2018-07-02T05:28:32.061Z,39.57
2018-07-02T05:29:32.025Z,39.57
2018-07-02T05:30:32.015Z,39.57
2018-07-02T05:31:32.101Z,39.57
2018-07-02T05:32:31.992Z,39.57
2018-07-02T05:33:32.006Z,39.57
2018-07-02T05:34:31.981Z,39.37
2018-07-02T05:35:31.961Z,39.37
2018-07-02T05:36:31.950Z,39.57
2018-07-02T05:37:31.937Z,39.47
2018-07-02T05:38:31.949Z,39.57
2018-07-02T05:39:31.916Z,39.57
2018-07-02T05:40:31.904Z,39.57
2018-07-02T05:41:31.893Z,39.57
2018-07-02T05:42:31.882Z,39.76
2018-07-02T05:43:31.896Z,39.57
2018-07-02T05:44:31.860Z,39.57
2018-07-02T05:45:31.850Z,39.57
2018-07-02T05:46:31.837Z,39.67
2018-07-02T05:47:31.827Z,39.57
2018-07-02T05:48:31.873Z,39.47
2018-07-02T05:49:31.807Z,39.67
2018-07-02T05:50:31.794Z,39.47
2018-07-02T05:51:31.785Z,39.57
2018-07-02T05:52:31.851Z,39.57
2018-07-02T05:53:31.763Z,39.67
2018-07-02T05:54:31.775Z,39.47
2018-07-02T05:55:31.738Z,39.76
2018-07-02T05:56:31.728Z,39.67
2018-07-02T05:57:31.717Z,39.57
2018-07-02T05:58:31.718Z,39.57
2018-07-02T05:59:31.719Z,39.57
2018-07-02T06:00:31.699Z,39.67
2018-07-02T06:01:31.674Z,39.57
2018-07-02T06:02:31.662Z,39.76
2018-07-02T06:03:31.655Z,39.57
2018-07-02T06:04:31.713Z,39.47
2018-07-02T06:05:31.630Z,39.75
2018-07-02T06:06:31.619Z,39.97
2018-07-02T06:07:31.607Z,38.87
2018-07-02T06:08:31.598Z,38.47
2018-07-02T06:09:31.611Z,38.28
2018-07-02T06:10:31.575Z,37.98
2018-07-02T06:11:31.563Z,38.47
2018-07-02T06:12:31.572Z,36.08
2018-07-02T06:13:31.545Z,33.60
2018-07-02T06:14:31.554Z,32.31
2018-07-02T06:15:31.519Z,32.53
2018-07-02T06:16:31.541Z,32.32
2018-07-02T06:17:31.497Z,33.02
2018-07-02T06:18:31.490Z,33.04
2018-07-02T06:19:31.499Z,32.64
2018-07-02T06:20:31.464Z,33.23
2018-07-02T06:21:31.453Z,32.35
2018-07-02T06:22:31.442Z,32.56
2018-07-02T06:23:31.431Z,33.07
2018-07-02T06:24:31.444Z,32.95
2018-07-02T06:25:31.409Z,33.55
2018-07-02T06:26:31.398Z,32.97
2018-07-02T06:27:31.387Z,32.97
2018-07-02T06:28:31.375Z,33.07
2018-07-02T06:29:31.393Z,32.77
2018-07-02T06:30:31.384Z,33.56
2018-07-02T06:31:31.346Z,32.97
2018-07-02T06:32:31.332Z,32.97
2018-07-02T06:33:31.321Z,33.18
2018-07-02T06:34:31.334Z,32.67
2018-07-02T06:35:31.300Z,32.27
2018-07-02T06:36:31.289Z,34.08
2018-07-02T06:37:31.281Z,32.89
2018-07-02T06:38:31.266Z,32.48
2018-07-02T06:39:31.281Z,32.59
2018-07-02T06:40:31.246Z,33.68
2018-07-02T06:41:31.233Z,33.28
2018-07-02T06:42:31.226Z,33.18
2018-07-02T06:43:31.215Z,33.88
2018-07-02T06:44:31.223Z,33.08
2018-07-02T06:45:31.191Z,33.20
2018-07-02T06:46:31.180Z,32.68
2018-07-02T06:47:31.173Z,33.18
2018-07-02T06:48:31.214Z,32.30
2018-07-02T06:49:31.274Z,33.88
2018-07-02T06:50:31.134Z,33.70
2018-07-02T06:51:31.123Z,33.80
2018-07-02T06:52:31.111Z,33.48
2018-07-02T06:53:31.099Z,33.88
2018-07-02T06:54:31.124Z,33.08
2018-07-02T06:55:31.082Z,34.08
2018-07-02T06:56:31.068Z,33.68
2018-07-02T06:57:31.060Z,34.18
2018-07-02T06:58:31.045Z,33.67
2018-07-02T06:59:31.060Z,33.08
2018-07-02T07:00:31.024Z,33.37
2018-07-02T07:01:31.015Z,32.39
2018-07-02T07:02:31.001Z,33.88
2018-07-02T07:03:30.991Z,33.56
2018-07-02T07:04:31.005Z,33.38
2018-07-02T07:05:30.968Z,32.57
2018-07-02T07:06:30.961Z,32.17
2018-07-02T07:07:30.948Z,33.48
2018-07-02T07:08:30.945Z,32.39
2018-07-02T07:09:30.950Z,32.48
2018-07-02T07:10:30.916Z,33.18
2018-07-02T07:11:30.908Z,32.89
2018-07-02T07:12:30.893Z,33.58
2018-07-02T07:13:30.882Z,33.88
2018-07-02T07:14:30.896Z,33.48
2018-07-02T07:15:30.887Z,33.68
2018-07-02T07:16:30.849Z,33.56
2018-07-02T07:17:30.839Z,33.07
2018-07-02T07:18:30.826Z,33.98
2018-07-02T07:19:30.838Z,33.07
2018-07-02T07:20:30.804Z,33.26
2018-07-02T07:21:30.793Z,33.97
2018-07-02T07:22:30.783Z,34.06
2018-07-02T07:23:30.771Z,34.06
2018-07-02T07:24:30.786Z,33.17
2018-07-02T07:25:30.750Z,33.17
2018-07-02T07:26:30.741Z,34.16
2018-07-02T07:27:30.758Z,33.15
2018-07-02T07:28:30.717Z,33.17
2018-07-02T07:29:30.730Z,33.95
2018-07-02T07:30:30.695Z,33.67
2018-07-02T07:31:30.685Z,33.45
2018-07-02T07:32:30.673Z,33.95
2018-07-02T07:33:30.663Z,33.65
2018-07-02T07:34:30.653Z,33.45
2018-07-02T07:35:30.667Z,33.95
2018-07-02T07:36:30.630Z,34.05
2018-07-02T07:37:30.628Z,33.85
2018-07-02T07:38:30.608Z,33.85
2018-07-02T07:39:30.622Z,33.45
2018-07-02T07:40:30.586Z,33.85
2018-07-02T07:41:30.575Z,33.55
2018-07-02T07:42:30.564Z,33.75
2018-07-02T07:43:30.552Z,34.05
2018-07-02T07:44:30.543Z,33.44
2018-07-02T07:45:30.554Z,33.14
2018-07-02T07:46:30.520Z,33.85
2018-07-02T07:47:30.508Z,34.03
2018-07-02T07:48:30.498Z,33.83
2018-07-02T07:49:30.489Z,33.83
2018-07-02T07:50:30.499Z,33.53
2018-07-02T07:51:30.465Z,33.34
2018-07-02T07:52:30.454Z,33.63
2018-07-02T07:53:30.442Z,33.83
2018-07-02T07:54:30.433Z,33.83
2018-07-02T07:55:30.443Z,33.34
2018-07-02T07:56:30.409Z,33.63
2018-07-02T07:57:30.400Z,33.44
2018-07-02T07:58:30.388Z,32.93
2018-07-02T07:59:30.444Z,33.63
2018-07-02T08:00:30.390Z,33.14
2018-07-02T08:01:30.355Z,33.04
2018-07-02T08:02:30.345Z,33.63
2018-07-02T08:03:30.340Z,33.34
2018-07-02T08:04:30.321Z,33.93
2018-07-02T08:05:30.336Z,33.83
2018-07-02T08:06:30.300Z,33.83
2018-07-02T08:07:30.288Z,33.63
2018-07-02T08:08:30.278Z,33.93
2018-07-02T09:13:01.353Z,34.89
2018-07-02T09:14:01.365Z,34.69
2018-07-02T09:15:01.309Z,35.10
2018-07-02T09:16:01.320Z,35.89
2018-07-02T09:17:01.289Z,35.59
2018-07-02T09:18:01.277Z,34.80
2018-07-02T09:19:01.370Z,29.33
2018-07-02T09:20:01.288Z,28.43
2018-07-02T09:21:01.288Z,27.45
2018-07-02T09:22:01.248Z,28.05
2018-07-02T09:23:01.223Z,27.17
2018-07-02T09:24:01.211Z,27.36
2018-07-02T09:25:01.209Z,28.26
2018-07-02T09:26:01.212Z,27.56
2018-07-02T09:27:01.177Z,27.96
2018-07-02T09:28:01.165Z,28.46
2018-07-02T09:29:01.154Z,28.16
2018-07-02T09:30:01.179Z,27.76
2018-07-02T09:31:01.172Z,27.76
2018-07-02T09:32:01.122Z,28.06
2018-07-02T09:33:01.111Z,28.16
2018-07-02T09:34:01.102Z,27.66
2018-07-02T09:35:01.125Z,27.86
2018-07-02T09:36:01.101Z,27.96
2018-07-02T09:37:01.066Z,28.16
2018-07-02T09:38:01.065Z,27.86
2018-07-02T09:39:01.057Z,27.76
2018-07-02T09:40:01.037Z,28.76
2018-07-02T09:41:01.052Z,29.25
2018-07-02T09:42:01.041Z,27.47
2018-07-02T09:43:01.065Z,27.76
2018-07-02T09:44:00.997Z,29.34
2018-07-02T09:45:00.978Z,28.15
2018-07-02T09:46:01.010Z,27.95
2018-07-02T09:47:00.957Z,28.34
2018-07-02T09:48:00.949Z,27.55
2018-07-02T09:49:00.933Z,27.75
2018-07-02T09:50:00.949Z,27.55
2018-07-02T09:51:00.950Z,27.45
2018-07-02T09:52:00.901Z,27.65
2018-07-02T09:53:00.892Z,27.34
2018-07-02T09:54:00.883Z,28.63
2018-07-02T09:55:00.868Z,27.44
2018-07-02T09:56:00.919Z,28.33
2018-07-02T09:57:00.855Z,27.55
2018-07-02T09:58:00.847Z,28.15
2018-07-02T09:59:00.861Z,27.94
2018-07-02T10:00:00.816Z,28.03
2018-07-02T10:01:00.860Z,28.03
2018-07-02T10:02:00.793Z,27.94
2018-07-02T10:03:00.787Z,27.83
2018-07-02T10:04:00.780Z,27.94
2018-07-02T10:05:00.768Z,27.85
2018-07-02T10:06:02.628Z,28.13
2018-07-02T10:07:00.740Z,26.86
2018-07-02T10:08:00.724Z,27.15
2018-07-02T10:09:00.717Z,27.83
2018-07-02T10:10:00.725Z,27.54
2018-07-02T10:11:00.739Z,28.63
2018-07-02T10:12:00.710Z,27.04
2018-07-02T10:13:00.673Z,27.34
2018-07-02T10:14:00.668Z,27.54
2018-07-02T10:15:00.646Z,27.24
2018-07-02T10:16:00.638Z,27.34
2018-07-02T10:17:00.680Z,27.14
2018-07-02T10:18:00.662Z,28.32
2018-07-02T10:19:00.604Z,27.72
2018-07-02T10:20:00.594Z,27.52
2018-07-02T10:21:00.588Z,27.42
2018-07-02T10:22:00.599Z,27.72
2018-07-02T10:23:00.564Z,27.72
2018-07-02T10:24:00.635Z,27.52
2018-07-02T10:25:00.547Z,27.62
2018-07-02T10:26:00.613Z,27.52
2018-07-02T10:27:00.537Z,27.11
2018-07-02T10:28:00.519Z,27.10
2018-07-02T10:29:00.509Z,27.21
2018-07-02T10:30:00.481Z,26.72
2018-07-02T10:31:00.538Z,27.21
2018-07-02T10:32:00.481Z,27.21
2018-07-02T10:33:00.454Z,27.11
2018-07-02T10:34:00.443Z,27.41
2018-07-02T10:35:00.433Z,27.30
2018-07-02T10:36:00.453Z,26.50
2018-07-02T10:37:00.434Z,26.31
2018-07-02T10:38:00.432Z,26.61
2018-07-02T10:39:00.427Z,25.21
2018-07-02T10:40:00.451Z,26.70
2018-07-02T10:41:00.377Z,26.90
2018-07-02T10:42:00.377Z,26.80
2018-07-02T10:43:00.356Z,26.59
2018-07-02T10:44:00.349Z,26.20
2018-07-02T10:45:00.323Z,26.79
2018-07-02T10:46:00.310Z,26.99
2018-07-02T10:47:00.359Z,27.39
2018-07-02T10:48:00.322Z,27.88
2018-07-02T10:49:00.409Z,27.09
2018-07-02T10:50:00.265Z,26.59
2018-07-02T10:51:00.257Z,27.27
2018-07-02T10:52:00.644Z,25.49
2018-07-02T10:53:00.244Z,25.89
2018-07-02T10:54:00.230Z,24.08
2018-07-02T10:55:00.220Z,24.88
2018-07-02T10:56:00.211Z,24.88
2018-07-02T10:57:00.215Z,23.48
2018-07-02T10:58:00.184Z,24.36
2018-07-02T10:59:00.172Z,24.84
2018-07-02T11:00:00.159Z,24.04
2018-07-02T11:01:00.149Z,23.13
2018-07-02T11:02:00.156Z,23.11
2018-07-02T11:03:00.136Z,23.70
2018-07-02T11:04:00.131Z,23.08
2018-07-02T11:05:00.099Z,21.30
2018-07-02T11:06:00.106Z,20.79
2018-07-02T11:07:00.104Z,20.50
2018-07-02T11:08:00.072Z,22.64
2018-07-02T11:09:00.062Z,21.07
2018-07-02T11:10:00.052Z,21.06
2018-07-02T11:11:00.053Z,20.86
2018-07-02T11:12:00.059Z,20.85
2018-07-02T11:13:00.022Z,20.15
2018-07-02T11:14:00.011Z,20.25
2018-07-02T11:15:00.004Z,19.85
2018-07-02T11:15:59.990Z,20.24
2018-07-02T11:16:59.994Z,19.25
2018-07-02T11:17:59.959Z,18.86
2018-07-02T11:18:59.994Z,20.12
2018-07-02T11:19:59.957Z,18.94
2018-07-02T11:20:59.928Z,20.30
2018-07-02T11:21:59.947Z,18.24
2018-07-02T11:22:59.905Z,16.87
2018-07-02T11:23:59.895Z,18.35
2018-07-02T11:24:59.886Z,17.55
2018-07-02T11:25:59.900Z,18.15
2018-07-02T11:26:59.892Z,18.81
2018-07-02T11:27:59.860Z,18.12
2018-07-02T11:28:59.841Z,18.21
2018-07-02T11:29:59.879Z,18.21
2018-07-02T11:30:59.827Z,18.50
2018-07-02T11:31:59.836Z,16.93
2018-07-02T11:32:59.803Z,17.90
2018-07-02T11:33:59.799Z,17.21
2018-07-02T11:34:59.782Z,17.60
2018-07-02T11:35:59.768Z,16.71
2018-07-02T11:36:59.804Z,16.32
2018-07-02T11:37:59.747Z,16.71
2018-07-02T11:38:59.740Z,17.19
2018-07-02T11:39:59.729Z,17.68
2018-07-02T11:40:59.747Z,16.80
2018-07-02T11:41:59.750Z,16.41
2018-07-02T11:42:59.696Z,17.66
2018-07-02T11:43:59.713Z,15.81
2018-07-02T11:44:59.673Z,15.42
2018-07-02T11:45:59.663Z,15.04
2018-07-02T11:46:59.678Z,15.72
2018-07-02T11:47:59.648Z,16.50
2018-07-02T11:48:59.632Z,15.80
2018-07-02T11:49:59.622Z,15.61
2018-07-02T11:50:59.619Z,14.73
2018-07-02T11:51:59.602Z,16.09
2018-07-02T11:52:59.614Z,14.34
2018-07-02T11:53:59.589Z,14.33
2018-07-02T11:54:59.575Z,14.72
2018-07-02T11:55:59.560Z,13.45
2018-07-02T11:56:59.576Z,14.13
2018-07-02T11:57:59.557Z,14.62
2018-07-02T11:58:59.557Z,13.56
2018-07-02T11:59:59.538Z,15.01
2018-07-02T12:00:59.510Z,14.14
2018-07-02T12:01:59.590Z,13.65
2018-07-02T12:02:59.512Z,14.23
2018-07-02T12:03:59.477Z,13.84
2018-07-02T12:04:59.488Z,14.72
2018-07-02T12:05:59.486Z,14.32
2018-07-02T12:06:59.446Z,14.11
2018-07-02T12:07:59.519Z,13.43
2018-07-02T12:08:59.424Z,13.23
2018-07-02T12:09:59.412Z,14.67
2018-07-02T12:10:59.403Z,14.77
2018-07-02T12:11:59.403Z,12.45
2018-07-02T12:12:59.403Z,13.02
2018-07-02T12:13:59.369Z,14.18
2018-07-02T12:14:59.359Z,12.83
2018-07-02T12:15:59.348Z,14.78
2018-07-02T12:16:59.341Z,13.43
2018-07-02T12:17:59.355Z,13.23
2018-07-02T12:18:59.323Z,13.42
2018-07-02T12:19:59.312Z,15.84
2018-07-02T12:20:59.296Z,13.60
2018-07-02T12:21:59.372Z,12.72
2018-07-02T12:22:59.305Z,12.73
2018-07-02T12:23:59.273Z,14.09
2018-07-02T12:24:59.265Z,12.33
2018-07-02T12:25:59.248Z,12.23
2018-07-02T12:26:59.249Z,12.41
2018-07-02T12:27:59.248Z,12.61
2018-07-02T12:28:59.216Z,12.13
2018-07-02T12:29:59.207Z,11.93
2018-07-02T12:30:59.195Z,11.83
2018-07-02T12:31:59.185Z,11.44
2018-07-02T12:32:59.203Z,11.63
2018-07-02T12:33:59.172Z,11.54
2018-07-02T12:34:59.157Z,11.54
2018-07-02T12:35:59.154Z,11.83
2018-07-02T12:36:59.139Z,12.43
2018-07-02T12:37:59.153Z,12.99
2018-07-02T12:38:59.120Z,12.21
2018-07-02T12:39:59.108Z,11.54
2018-07-02T12:40:59.107Z,12.31
2018-07-02T12:41:59.086Z,11.54
2018-07-02T12:42:59.098Z,11.04
2018-07-02T12:43:59.116Z,11.92
2018-07-02T12:44:59.056Z,12.30
2018-07-02T12:45:59.046Z,11.80
2018-07-02T12:46:59.036Z,11.32
2018-07-02T12:47:59.064Z,11.81
2018-07-02T12:48:59.056Z,11.71
2018-07-02T12:49:59.045Z,11.12
2018-07-02T12:50:58.995Z,11.90
2018-07-02T12:51:58.987Z,11.61
2018-07-02T12:52:59.044Z,11.41
2018-07-02T12:53:58.968Z,11.89
2018-07-02T12:54:58.957Z,11.40
2018-07-02T12:55:58.961Z,10.91
2018-07-02T12:56:58.939Z,10.05
2018-07-02T12:57:58.963Z,10.33
2018-07-02T12:58:58.920Z,10.14
2018-07-02T12:59:58.908Z,10.43
2018-07-02T13:00:58.904Z,9.75
2018-07-02T13:01:58.888Z,10.91
2018-07-02T13:02:58.923Z,10.04
2018-07-02T13:03:58.878Z,9.75
2018-07-02T13:04:58.862Z,11.60
2018-07-02T13:05:58.853Z,10.72
2018-07-02T13:06:58.841Z,11.32
2018-07-02T13:07:58.854Z,11.60
2018-07-02T13:08:58.843Z,10.82
2018-07-02T13:09:58.813Z,10.91
2018-07-02T13:10:58.807Z,10.52
2018-07-02T13:11:58.793Z,10.99
2018-07-02T13:12:58.806Z,10.90
2018-07-02T13:13:58.775Z,10.52
2018-07-02T13:14:58.770Z,10.62
2018-07-02T13:15:58.757Z,10.62
2018-07-02T13:16:58.779Z,11.59
2018-07-02T13:17:58.763Z,10.72
2018-07-02T13:18:58.729Z,10.14
2018-07-02T13:19:58.718Z,10.23
2018-07-02T13:20:58.716Z,10.81
2018-07-02T13:21:58.700Z,10.81
2018-07-02T13:22:58.740Z,10.33
2018-07-02T13:23:58.680Z,10.24
2018-07-02T13:24:58.677Z,10.24
2018-07-02T13:25:58.671Z,10.23
2018-07-02T13:26:58.675Z,10.23
2018-07-02T13:27:58.670Z,11.47
2018-07-02T13:28:58.633Z,10.99
2018-07-02T13:29:58.673Z,10.50
2018-07-02T13:30:58.638Z,10.11
2018-07-02T13:31:58.606Z,10.02
2018-07-02T13:32:58.619Z,9.53
2018-07-02T13:33:58.591Z,9.24
2018-07-02T13:34:58.631Z,10.41
2018-07-02T13:35:58.569Z,9.72
2018-07-02T13:36:58.561Z,9.05
2018-07-02T13:37:58.658Z,10.11
2018-07-02T13:38:58.566Z,9.43
2018-07-02T13:39:58.535Z,9.43
2018-07-02T13:40:58.531Z,9.71
2018-07-02T13:41:58.537Z,9.33
2018-07-02T13:42:58.509Z,9.34
2018-07-02T13:43:58.623Z,9.33
2018-07-02T13:44:58.513Z,9.52
2018-07-02T13:45:58.481Z,9.91
2018-07-02T13:46:58.547Z,9.24
2018-07-02T13:47:58.468Z,9.91
2018-07-02T13:48:58.477Z,8.95
2018-07-02T13:49:58.492Z,10.01
2018-07-02T13:50:58.436Z,9.06
2018-07-02T13:51:58.431Z,10.22
2018-07-02T13:52:58.424Z,10.22
2018-07-02T13:53:58.440Z,9.92
2018-07-02T13:54:58.405Z,9.82
2018-07-02T13:55:58.490Z,10.50
2018-07-02T13:56:58.388Z,9.63